sensor_id;sensor_type;location;lat;lon;timestamp;P1;durP1;ratioP1;P2;durP2;ratioP2
80133;SDS011;69443;51.442;10.564;2023-05-07T00:01:35;17.88;;;11.52;;
80133;SDS011;69443;51.442;10.564;2023-05-07T00:04:00;20.35;;;12.73;;
80133;SDS011;69443;51.442;10.564;2023-05-07T00:06:26;16.75;;;11.18;;
80133;SDS011;69443;51.442;10.564;2023-05-07T00:08:53;19.42;;;12.02;;
80133;SDS011;69443;51.442;10.564;2023-05-07T00:11:19;18.10;;;11.82;;
80133;SDS011;69443;51.442;10.564;2023-05-07T00:13:45;18.40;;;12.55;;
80133;SDS011;69443;51.442;10.564;2023-05-07T00:16:10;19.48;;;11.77;;
80133;SDS011;69443;51.442;10.564;2023-05-07T00:18:35;18.05;;;12.43;;
80133;SDS011;69443;51.442;10.564;2023-05-07T00:21:01;17.27;;;11.52;;
80133;SDS011;69443;51.442;10.564;2023-05-07T00:23:26;16.33;;;11.38;;
80133;SDS011;69443;51.442;10.564;2023-05-07T00:25:51;17.60;;;11.00;;
80133;SDS011;69443;51.442;10.564;2023-05-07T00:28:17;19.95;;;11.75;;
80133;SDS011;69443;51.442;10.564;2023-05-07T00:30:42;17.42;;;11.68;;
80133;SDS011;69443;51.442;10.564;2023-05-07T00:33:07;16.02;;;10.43;;
80133;SDS011;69443;51.442;10.564;2023-05-07T00:35:33;15.27;;;10.55;;
80133;SDS011;69443;51.442;10.564;2023-05-07T00:37:59;18.35;;;11.25;;
80133;SDS011;69443;51.442;10.564;2023-05-07T00:40:24;18.60;;;11.85;;
80133;SDS011;69443;51.442;10.564;2023-05-07T00:42:50;19.50;;;11.73;;
80133;SDS011;69443;51.442;10.564;2023-05-07T00:45:16;16.85;;;11.60;;
80133;SDS011;69443;51.442;10.564;2023-05-07T00:47:42;17.17;;;11.10;;
80133;SDS011;69443;51.442;10.564;2023-05-07T00:50:08;16.23;;;10.65;;
80133;SDS011;69443;51.442;10.564;2023-05-07T00:52:36;16.65;;;11.10;;
80133;SDS011;69443;51.442;10.564;2023-05-07T00:55:04;15.38;;;10.60;;
80133;SDS011;69443;51.442;10.564;2023-05-07T00:57:36;19.33;;;12.88;;
80133;SDS011;69443;51.442;10.564;2023-05-07T01:00:06;17.88;;;11.07;;
80133;SDS011;69443;51.442;10.564;2023-05-07T01:02:36;17.05;;;11.38;;
80133;SDS011;69443;51.442;10.564;2023-05-07T01:05:02;20.63;;;12.32;;
80133;SDS011;69443;51.442;10.564;2023-05-07T01:07:31;18.73;;;11.65;;
80133;SDS011;69443;51.442;10.564;2023-05-07T01:09:57;19.33;;;11.93;;
80133;SDS011;69443;51.442;10.564;2023-05-07T01:12:23;20.52;;;11.93;;
80133;SDS011;69443;51.442;10.564;2023-05-07T01:14:49;16.92;;;11.50;;
80133;SDS011;69443;51.442;10.564;2023-05-07T01:17:15;18.05;;;10.82;;
80133;SDS011;69443;51.442;10.564;2023-05-07T01:19:42;20.60;;;12.30;;
80133;SDS011;69443;51.442;10.564;2023-05-07T01:22:08;18.08;;;11.38;;
80133;SDS011;69443;51.442;10.564;2023-05-07T01:24:36;19.33;;;11.90;;
80133;SDS011;69443;51.442;10.564;2023-05-07T01:27:02;17.45;;;11.27;;
80133;SDS011;69443;51.442;10.564;2023-05-07T01:29:27;17.50;;;10.93;;
80133;SDS011;69443;51.442;10.564;2023-05-07T01:31:53;18.33;;;11.20;;
80133;SDS011;69443;51.442;10.564;2023-05-07T01:34:22;16.63;;;10.50;;
80133;SDS011;69443;51.442;10.564;2023-05-07T01:36:49;17.80;;;10.82;;
80133;SDS011;69443;51.442;10.564;2023-05-07T01:39:15;18.58;;;12.00;;
80133;SDS011;69443;51.442;10.564;2023-05-07T01:41:42;20.77;;;12.38;;
80133;SDS011;69443;51.442;10.564;2023-05-07T01:44:08;18.80;;;12.30;;
80133;SDS011;69443;51.442;10.564;2023-05-07T01:46:37;17.35;;;10.65;;
80133;SDS011;69443;51.442;10.564;2023-05-07T01:49:02;17.75;;;11.57;;
80133;SDS011;69443;51.442;10.564;2023-05-07T01:51:28;20.42;;;11.43;;
80133;SDS011;69443;51.442;10.564;2023-05-07T01:53:54;18.90;;;11.02;;
80133;SDS011;69443;51.442;10.564;2023-05-07T01:56:20;17.15;;;10.88;;
80133;SDS011;69443;51.442;10.564;2023-05-07T01:58:46;19.60;;;11.05;;
80133;SDS011;69443;51.442;10.564;2023-05-07T02:01:12;16.50;;;10.70;;
80133;SDS011;69443;51.442;10.564;2023-05-07T02:03:38;16.40;;;10.48;;
80133;SDS011;69443;51.442;10.564;2023-05-07T02:06:04;18.27;;;11.10;;
80133;SDS011;69443;51.442;10.564;2023-05-07T02:08:29;18.35;;;10.57;;
80133;SDS011;69443;51.442;10.564;2023-05-07T02:10:56;16.58;;;10.40;;
80133;SDS011;69443;51.442;10.564;2023-05-07T02:13:21;17.83;;;10.88;;
80133;SDS011;69443;51.442;10.564;2023-05-07T02:15:47;17.77;;;11.07;;
80133;SDS011;69443;51.442;10.564;2023-05-07T02:18:15;16.65;;;10.68;;
80133;SDS011;69443;51.442;10.564;2023-05-07T02:20:41;14.68;;;9.48;;
80133;SDS011;69443;51.442;10.564;2023-05-07T02:23:07;15.75;;;9.13;;
80133;SDS011;69443;51.442;10.564;2023-05-07T02:25:33;14.05;;;9.15;;
80133;SDS011;69443;51.442;10.564;2023-05-07T02:27:58;16.73;;;9.77;;
80133;SDS011;69443;51.442;10.564;2023-05-07T02:30:24;17.88;;;10.68;;
80133;SDS011;69443;51.442;10.564;2023-05-07T02:32:50;15.32;;;9.43;;
80133;SDS011;69443;51.442;10.564;2023-05-07T02:35:15;16.30;;;9.80;;
80133;SDS011;69443;51.442;10.564;2023-05-07T02:37:41;15.68;;;9.10;;
80133;SDS011;69443;51.442;10.564;2023-05-07T02:40:06;16.02;;;10.23;;
80133;SDS011;69443;51.442;10.564;2023-05-07T02:42:32;14.48;;;9.05;;
80133;SDS011;69443;51.442;10.564;2023-05-07T02:44:58;15.93;;;10.18;;
80133;SDS011;69443;51.442;10.564;2023-05-07T02:47:24;14.93;;;8.95;;
80133;SDS011;69443;51.442;10.564;2023-05-07T02:49:51;15.13;;;9.57;;
80133;SDS011;69443;51.442;10.564;2023-05-07T02:52:18;14.88;;;8.60;;
80133;SDS011;69443;51.442;10.564;2023-05-07T02:54:43;14.02;;;9.55;;
80133;SDS011;69443;51.442;10.564;2023-05-07T02:57:08;14.90;;;9.27;;
80133;SDS011;69443;51.442;10.564;2023-05-07T02:59:34;12.65;;;7.57;;
80133;SDS011;69443;51.442;10.564;2023-05-07T03:01:59;14.18;;;8.77;;
80133;SDS011;69443;51.442;10.564;2023-05-07T03:04:24;13.43;;;8.65;;
80133;SDS011;69443;51.442;10.564;2023-05-07T03:06:50;13.13;;;8.75;;
80133;SDS011;69443;51.442;10.564;2023-05-07T03:09:16;13.88;;;8.82;;
80133;SDS011;69443;51.442;10.564;2023-05-07T03:11:41;15.10;;;8.48;;
80133;SDS011;69443;51.442;10.564;2023-05-07T03:14:07;14.65;;;9.10;;
80133;SDS011;69443;51.442;10.564;2023-05-07T03:16:32;14.10;;;8.77;;
80133;SDS011;69443;51.442;10.564;2023-05-07T03:18:58;12.90;;;8.80;;
80133;SDS011;69443;51.442;10.564;2023-05-07T03:21:23;15.55;;;8.75;;
80133;SDS011;69443;51.442;10.564;2023-05-07T03:23:48;13.52;;;7.78;;
80133;SDS011;69443;51.442;10.564;2023-05-07T03:26:14;15.88;;;8.63;;
80133;SDS011;69443;51.442;10.564;2023-05-07T03:28:39;16.05;;;8.77;;
80133;SDS011;69443;51.442;10.564;2023-05-07T03:31:05;14.93;;;7.97;;
80133;SDS011;69443;51.442;10.564;2023-05-07T03:33:32;14.82;;;8.55;;
80133;SDS011;69443;51.442;10.564;2023-05-07T03:35:58;13.90;;;8.70;;
80133;SDS011;69443;51.442;10.564;2023-05-07T03:38:23;15.48;;;8.02;;
80133;SDS011;69443;51.442;10.564;2023-05-07T03:40:49;15.43;;;9.40;;
80133;SDS011;69443;51.442;10.564;2023-05-07T03:43:14;14.90;;;8.70;;
80133;SDS011;69443;51.442;10.564;2023-05-07T03:45:40;17.08;;;8.90;;
80133;SDS011;69443;51.442;10.564;2023-05-07T03:48:05;14.23;;;8.57;;
80133;SDS011;69443;51.442;10.564;2023-05-07T03:50:30;14.68;;;8.55;;
80133;SDS011;69443;51.442;10.564;2023-05-07T03:52:56;16.17;;;8.68;;
80133;SDS011;69443;51.442;10.564;2023-05-07T03:55:21;25.13;;;9.73;;
80133;SDS011;69443;51.442;10.564;2023-05-07T03:57:47;14.15;;;8.25;;
80133;SDS011;69443;51.442;10.564;2023-05-07T04:00:12;14.65;;;8.82;;
80133;SDS011;69443;51.442;10.564;2023-05-07T04:02:38;17.10;;;9.13;;
80133;SDS011;69443;51.442;10.564;2023-05-07T04:05:03;15.40;;;8.73;;
80133;SDS011;69443;51.442;10.564;2023-05-07T04:07:30;14.75;;;8.70;;
80133;SDS011;69443;51.442;10.564;2023-05-07T04:09:55;17.00;;;9.55;;
80133;SDS011;69443;51.442;10.564;2023-05-07T04:12:20;14.65;;;8.93;;
80133;SDS011;69443;51.442;10.564;2023-05-07T04:14:46;11.02;;;7.63;;
80133;SDS011;69443;51.442;10.564;2023-05-07T04:17:11;12.77;;;8.75;;
80133;SDS011;69443;51.442;10.564;2023-05-07T04:19:37;12.98;;;8.43;;
80133;SDS011;69443;51.442;10.564;2023-05-07T04:22:02;14.85;;;8.70;;
80133;SDS011;69443;51.442;10.564;2023-05-07T04:24:30;14.38;;;8.50;;
80133;SDS011;69443;51.442;10.564;2023-05-07T04:26:56;14.13;;;8.63;;
80133;SDS011;69443;51.442;10.564;2023-05-07T04:29:23;15.00;;;8.90;;
80133;SDS011;69443;51.442;10.564;2023-05-07T04:31:48;16.15;;;10.07;;
80133;SDS011;69443;51.442;10.564;2023-05-07T04:34:14;15.13;;;9.40;;
80133;SDS011;69443;51.442;10.564;2023-05-07T04:36:39;15.82;;;9.55;;
80133;SDS011;69443;51.442;10.564;2023-05-07T04:39:05;16.25;;;9.68;;
80133;SDS011;69443;51.442;10.564;2023-05-07T04:41:30;15.48;;;9.40;;
80133;SDS011;69443;51.442;10.564;2023-05-07T04:43:56;16.63;;;9.05;;
80133;SDS011;69443;51.442;10.564;2023-05-07T04:46:23;13.93;;;8.38;;
80133;SDS011;69443;51.442;10.564;2023-05-07T04:48:49;14.63;;;9.07;;
80133;SDS011;69443;51.442;10.564;2023-05-07T04:51:15;17.17;;;9.63;;
80133;SDS011;69443;51.442;10.564;2023-05-07T04:53:40;14.68;;;7.88;;
80133;SDS011;69443;51.442;10.564;2023-05-07T04:56:06;14.15;;;8.35;;
80133;SDS011;69443;51.442;10.564;2023-05-07T04:58:31;13.55;;;7.97;;
80133;SDS011;69443;51.442;10.564;2023-05-07T05:00:58;14.43;;;8.18;;
80133;SDS011;69443;51.442;10.564;2023-05-07T05:03:24;13.82;;;7.50;;
80133;SDS011;69443;51.442;10.564;2023-05-07T05:05:50;11.00;;;7.00;;
80133;SDS011;69443;51.442;10.564;2023-05-07T05:08:17;13.05;;;7.35;;
80133;SDS011;69443;51.442;10.564;2023-05-07T05:10:42;13.73;;;7.97;;
80133;SDS011;69443;51.442;10.564;2023-05-07T05:13:08;12.23;;;7.05;;
80133;SDS011;69443;51.442;10.564;2023-05-07T05:15:34;14.07;;;8.23;;
80133;SDS011;69443;51.442;10.564;2023-05-07T05:18:00;11.70;;;6.90;;
80133;SDS011;69443;51.442;10.564;2023-05-07T05:20:25;12.73;;;7.35;;
80133;SDS011;69443;51.442;10.564;2023-05-07T05:22:51;12.50;;;7.40;;
80133;SDS011;69443;51.442;10.564;2023-05-07T05:25:16;13.20;;;7.25;;
80133;SDS011;69443;51.442;10.564;2023-05-07T05:27:42;12.02;;;7.20;;
80133;SDS011;69443;51.442;10.564;2023-05-07T05:30:08;12.23;;;7.53;;
80133;SDS011;69443;51.442;10.564;2023-05-07T05:32:34;12.35;;;6.55;;
80133;SDS011;69443;51.442;10.564;2023-05-07T05:34:59;13.55;;;7.63;;
80133;SDS011;69443;51.442;10.564;2023-05-07T05:37:25;13.73;;;7.00;;
80133;SDS011;69443;51.442;10.564;2023-05-07T05:39:50;12.00;;;7.53;;
80133;SDS011;69443;51.442;10.564;2023-05-07T05:42:16;15.57;;;7.80;;
80133;SDS011;69443;51.442;10.564;2023-05-07T05:44:41;12.63;;;7.82;;
80133;SDS011;69443;51.442;10.564;2023-05-07T05:47:06;12.80;;;7.25;;
80133;SDS011;69443;51.442;10.564;2023-05-07T05:49:32;13.32;;;7.85;;
80133;SDS011;69443;51.442;10.564;2023-05-07T05:51:57;11.48;;;7.45;;
80133;SDS011;69443;51.442;10.564;2023-05-07T05:54:22;16.17;;;7.57;;
80133;SDS011;69443;51.442;10.564;2023-05-07T05:56:48;13.48;;;7.63;;
80133;SDS011;69443;51.442;10.564;2023-05-07T05:59:14;15.77;;;7.43;;
80133;SDS011;69443;51.442;10.564;2023-05-07T06:01:39;14.30;;;7.25;;
80133;SDS011;69443;51.442;10.564;2023-05-07T06:04:05;14.20;;;7.50;;
80133;SDS011;69443;51.442;10.564;2023-05-07T06:06:30;13.07;;;6.85;;
80133;SDS011;69443;51.442;10.564;2023-05-07T06:08:56;11.25;;;7.38;;
80133;SDS011;69443;51.442;10.564;2023-05-07T06:11:22;15.88;;;8.10;;
80133;SDS011;69443;51.442;10.564;2023-05-07T06:13:47;15.95;;;7.65;;
80133;SDS011;69443;51.442;10.564;2023-05-07T06:16:13;14.52;;;6.85;;
80133;SDS011;69443;51.442;10.564;2023-05-07T06:18:39;13.30;;;7.18;;
80133;SDS011;69443;51.442;10.564;2023-05-07T06:21:04;12.18;;;7.30;;
80133;SDS011;69443;51.442;10.564;2023-05-07T06:23:30;14.35;;;7.63;;
80133;SDS011;69443;51.442;10.564;2023-05-07T06:25:55;15.18;;;7.63;;
80133;SDS011;69443;51.442;10.564;2023-05-07T06:28:22;15.90;;;7.97;;
80133;SDS011;69443;51.442;10.564;2023-05-07T06:30:47;13.18;;;7.95;;
80133;SDS011;69443;51.442;10.564;2023-05-07T06:33:14;16.55;;;7.95;;
80133;SDS011;69443;51.442;10.564;2023-05-07T06:35:40;14.73;;;8.10;;
80133;SDS011;69443;51.442;10.564;2023-05-07T06:38:06;13.60;;;7.32;;
80133;SDS011;69443;51.442;10.564;2023-05-07T06:40:31;11.02;;;6.45;;
80133;SDS011;69443;51.442;10.564;2023-05-07T06:42:56;12.13;;;7.05;;
80133;SDS011;69443;51.442;10.564;2023-05-07T06:45:22;11.98;;;7.25;;
80133;SDS011;69443;51.442;10.564;2023-05-07T06:47:47;12.07;;;7.32;;
80133;SDS011;69443;51.442;10.564;2023-05-07T06:50:13;11.68;;;6.93;;
80133;SDS011;69443;51.442;10.564;2023-05-07T06:52:38;13.68;;;6.88;;
80133;SDS011;69443;51.442;10.564;2023-05-07T06:55:04;15.05;;;7.88;;
80133;SDS011;69443;51.442;10.564;2023-05-07T06:57:30;13.25;;;6.90;;
80133;SDS011;69443;51.442;10.564;2023-05-07T06:59:55;11.95;;;7.13;;
80133;SDS011;69443;51.442;10.564;2023-05-07T07:02:21;14.35;;;7.20;;
80133;SDS011;69443;51.442;10.564;2023-05-07T07:04:46;12.18;;;7.85;;
80133;SDS011;69443;51.442;10.564;2023-05-07T07:07:11;14.38;;;7.15;;
80133;SDS011;69443;51.442;10.564;2023-05-07T07:09:37;11.45;;;7.53;;
80133;SDS011;69443;51.442;10.564;2023-05-07T07:12:02;14.00;;;7.63;;
80133;SDS011;69443;51.442;10.564;2023-05-07T07:14:28;13.23;;;7.38;;
80133;SDS011;69443;51.442;10.564;2023-05-07T07:16:53;11.57;;;7.03;;
80133;SDS011;69443;51.442;10.564;2023-05-07T07:19:18;11.05;;;6.75;;
80133;SDS011;69443;51.442;10.564;2023-05-07T07:21:45;14.32;;;7.47;;
80133;SDS011;69443;51.442;10.564;2023-05-07T07:24:10;15.30;;;8.07;;
80133;SDS011;69443;51.442;10.564;2023-05-07T07:26:36;10.60;;;6.22;;
80133;SDS011;69443;51.442;10.564;2023-05-07T07:29:01;13.32;;;7.85;;
80133;SDS011;69443;51.442;10.564;2023-05-07T07:31:26;13.88;;;8.02;;
80133;SDS011;69443;51.442;10.564;2023-05-07T07:33:52;14.18;;;7.10;;
80133;SDS011;69443;51.442;10.564;2023-05-07T07:36:17;14.10;;;7.38;;
80133;SDS011;69443;51.442;10.564;2023-05-07T07:38:42;12.77;;;7.97;;
80133;SDS011;69443;51.442;10.564;2023-05-07T07:41:08;12.98;;;7.20;;
80133;SDS011;69443;51.442;10.564;2023-05-07T07:43:34;13.02;;;7.55;;
80133;SDS011;69443;51.442;10.564;2023-05-07T07:46:00;13.90;;;7.90;;
80133;SDS011;69443;51.442;10.564;2023-05-07T07:48:26;14.02;;;7.90;;
80133;SDS011;69443;51.442;10.564;2023-05-07T07:50:51;14.00;;;8.45;;
80133;SDS011;69443;51.442;10.564;2023-05-07T07:53:17;14.90;;;8.57;;
80133;SDS011;69443;51.442;10.564;2023-05-07T07:55:43;14.65;;;8.93;;
80133;SDS011;69443;51.442;10.564;2023-05-07T07:58:09;16.55;;;9.32;;
80133;SDS011;69443;51.442;10.564;2023-05-07T08:00:34;13.75;;;7.85;;
80133;SDS011;69443;51.442;10.564;2023-05-07T08:03:00;17.98;;;9.80;;
80133;SDS011;69443;51.442;10.564;2023-05-07T08:05:26;16.13;;;9.40;;
80133;SDS011;69443;51.442;10.564;2023-05-07T08:07:51;12.25;;;8.77;;
80133;SDS011;69443;51.442;10.564;2023-05-07T08:10:18;12.38;;;7.20;;
80133;SDS011;69443;51.442;10.564;2023-05-07T08:12:47;48.70;;;9.85;;
80133;SDS011;69443;51.442;10.564;2023-05-07T08:15:16;16.60;;;9.07;;
80133;SDS011;69443;51.442;10.564;2023-05-07T08:17:42;15.05;;;8.68;;
80133;SDS011;69443;51.442;10.564;2023-05-07T08:20:08;15.10;;;9.00;;
80133;SDS011;69443;51.442;10.564;2023-05-07T08:22:34;16.70;;;10.02;;
80133;SDS011;69443;51.442;10.564;2023-05-07T08:25:00;15.55;;;9.65;;
80133;SDS011;69443;51.442;10.564;2023-05-07T08:27:25;16.52;;;9.63;;
80133;SDS011;69443;51.442;10.564;2023-05-07T08:29:51;15.57;;;9.48;;
80133;SDS011;69443;51.442;10.564;2023-05-07T08:32:16;15.88;;;9.82;;
80133;SDS011;69443;51.442;10.564;2023-05-07T08:34:41;14.88;;;8.88;;
80133;SDS011;69443;51.442;10.564;2023-05-07T08:37:07;15.68;;;10.15;;
80133;SDS011;69443;51.442;10.564;2023-05-07T08:39:32;15.85;;;9.85;;
80133;SDS011;69443;51.442;10.564;2023-05-07T08:41:58;19.05;;;10.10;;
80133;SDS011;69443;51.442;10.564;2023-05-07T08:44:29;18.45;;;10.23;;
80133;SDS011;69443;51.442;10.564;2023-05-07T08:46:58;15.90;;;10.05;;
80133;SDS011;69443;51.442;10.564;2023-05-07T08:49:25;18.52;;;11.35;;
80133;SDS011;69443;51.442;10.564;2023-05-07T08:51:52;17.20;;;10.80;;
80133;SDS011;69443;51.442;10.564;2023-05-07T08:54:18;16.92;;;10.52;;
80133;SDS011;69443;51.442;10.564;2023-05-07T08:56:44;18.17;;;11.65;;
80133;SDS011;69443;51.442;10.564;2023-05-07T08:59:10;17.90;;;10.88;;
80133;SDS011;69443;51.442;10.564;2023-05-07T09:01:37;17.35;;;11.20;;
80133;SDS011;69443;51.442;10.564;2023-05-07T09:04:03;17.35;;;10.73;;
80133;SDS011;69443;51.442;10.564;2023-05-07T09:06:29;19.60;;;11.00;;
80133;SDS011;69443;51.442;10.564;2023-05-07T09:08:55;19.30;;;11.68;;
80133;SDS011;69443;51.442;10.564;2023-05-07T09:11:23;18.15;;;11.43;;
80133;SDS011;69443;51.442;10.564;2023-05-07T09:13:56;18.95;;;11.77;;
80133;SDS011;69443;51.442;10.564;2023-05-07T09:16:23;17.58;;;11.60;;
80133;SDS011;69443;51.442;10.564;2023-05-07T09:18:53;20.02;;;12.57;;
80133;SDS011;69443;51.442;10.564;2023-05-07T09:21:19;18.20;;;11.32;;
80133;SDS011;69443;51.442;10.564;2023-05-07T09:23:47;16.65;;;9.93;;
80133;SDS011;69443;51.442;10.564;2023-05-07T09:26:16;17.92;;;11.43;;
80133;SDS011;69443;51.442;10.564;2023-05-07T09:28:42;20.98;;;11.55;;
80133;SDS011;69443;51.442;10.564;2023-05-07T09:31:08;19.02;;;11.95;;
80133;SDS011;69443;51.442;10.564;2023-05-07T09:33:34;17.50;;;10.75;;
80133;SDS011;69443;51.442;10.564;2023-05-07T09:36:04;18.10;;;11.80;;
80133;SDS011;69443;51.442;10.564;2023-05-07T09:38:31;19.98;;;11.90;;
80133;SDS011;69443;51.442;10.564;2023-05-07T09:41:01;18.65;;;11.20;;
80133;SDS011;69443;51.442;10.564;2023-05-07T09:43:34;13.80;;;9.77;;
80133;SDS011;69443;51.442;10.564;2023-05-07T09:46:03;17.60;;;10.85;;
80133;SDS011;69443;51.442;10.564;2023-05-07T09:48:32;18.00;;;11.27;;
80133;SDS011;69443;51.442;10.564;2023-05-07T09:51:02;18.35;;;11.70;;
80133;SDS011;69443;51.442;10.564;2023-05-07T09:53:31;18.75;;;10.85;;
80133;SDS011;69443;51.442;10.564;2023-05-07T09:55:58;17.65;;;11.60;;
80133;SDS011;69443;51.442;10.564;2023-05-07T09:58:24;19.27;;;12.15;;
80133;SDS011;69443;51.442;10.564;2023-05-07T10:00:51;17.98;;;11.30;;
80133;SDS011;69443;51.442;10.564;2023-05-07T10:03:17;19.38;;;11.85;;
80133;SDS011;69443;51.442;10.564;2023-05-07T10:05:44;15.75;;;10.23;;
80133;SDS011;69443;51.442;10.564;2023-05-07T10:08:11;15.70;;;10.07;;
80133;SDS011;69443;51.442;10.564;2023-05-07T10:10:36;18.55;;;11.40;;
80133;SDS011;69443;51.442;10.564;2023-05-07T10:13:02;19.00;;;12.18;;
80133;SDS011;69443;51.442;10.564;2023-05-07T10:15:30;17.83;;;11.27;;
80133;SDS011;69443;51.442;10.564;2023-05-07T10:17:56;17.98;;;10.80;;
80133;SDS011;69443;51.442;10.564;2023-05-07T10:20:22;17.55;;;11.32;;
80133;SDS011;69443;51.442;10.564;2023-05-07T10:22:48;17.90;;;12.38;;
80133;SDS011;69443;51.442;10.564;2023-05-07T10:25:20;17.35;;;10.90;;
80133;SDS011;69443;51.442;10.564;2023-05-07T10:27:51;16.45;;;10.85;;
80133;SDS011;69443;51.442;10.564;2023-05-07T10:30:42;17.10;;;10.40;;
80133;SDS011;69443;51.442;10.564;2023-05-07T10:33:11;19.45;;;11.15;;
80133;SDS011;69443;51.442;10.564;2023-05-07T10:35:39;17.42;;;11.40;;
80133;SDS011;69443;51.442;10.564;2023-05-07T10:38:09;17.73;;;12.50;;
80133;SDS011;69443;51.442;10.564;2023-05-07T10:40:34;16.35;;;11.38;;
80133;SDS011;69443;51.442;10.564;2023-05-07T10:43:02;17.65;;;12.10;;
80133;SDS011;69443;51.442;10.564;2023-05-07T10:45:30;19.52;;;12.02;;
80133;SDS011;69443;51.442;10.564;2023-05-07T10:48:06;17.40;;;12.18;;
80133;SDS011;69443;51.442;10.564;2023-05-07T10:50:42;18.67;;;12.35;;
80133;SDS011;69443;51.442;10.564;2023-05-07T10:55:41;20.65;;;13.27;;
80133;SDS011;69443;51.442;10.564;2023-05-07T10:58:25;18.83;;;12.23;;
80133;SDS011;69443;51.442;10.564;2023-05-07T11:00:59;18.65;;;13.05;;
80133;SDS011;69443;51.442;10.564;2023-05-07T11:03:29;18.83;;;11.73;;
80133;SDS011;69443;51.442;10.564;2023-05-07T11:06:08;19.10;;;11.40;;
80133;SDS011;69443;51.442;10.564;2023-05-07T11:11:33;16.92;;;11.63;;
80133;SDS011;69443;51.442;10.564;2023-05-07T11:17:06;16.65;;;10.55;;
80133;SDS011;69443;51.442;10.564;2023-05-07T11:19:50;15.80;;;10.40;;
80133;SDS011;69443;51.442;10.564;2023-05-07T11:25:04;16.90;;;11.50;;
80133;SDS011;69443;51.442;10.564;2023-05-07T11:27:31;14.95;;;10.15;;
80133;SDS011;69443;51.442;10.564;2023-05-07T11:29:57;15.43;;;10.18;;
80133;SDS011;69443;51.442;10.564;2023-05-07T11:32:23;14.82;;;10.00;;
80133;SDS011;69443;51.442;10.564;2023-05-07T11:34:52;15.95;;;10.43;;
80133;SDS011;69443;51.442;10.564;2023-05-07T11:37:22;14.82;;;10.38;;
80133;SDS011;69443;51.442;10.564;2023-05-07T11:39:49;16.10;;;10.68;;
80133;SDS011;69443;51.442;10.564;2023-05-07T11:42:29;16.70;;;11.45;;
80133;SDS011;69443;51.442;10.564;2023-05-07T11:44:59;14.75;;;10.82;;
80133;SDS011;69443;51.442;10.564;2023-05-07T11:47:25;15.38;;;10.57;;
80133;SDS011;69443;51.442;10.564;2023-05-07T11:49:51;14.25;;;9.85;;
80133;SDS011;69443;51.442;10.564;2023-05-07T11:52:19;18.73;;;11.52;;
80133;SDS011;69443;51.442;10.564;2023-05-07T11:54:49;15.52;;;10.57;;
80133;SDS011;69443;51.442;10.564;2023-05-07T11:57:19;18.48;;;11.23;;
80133;SDS011;69443;51.442;10.564;2023-05-07T11:59:45;14.07;;;10.15;;
80133;SDS011;69443;51.442;10.564;2023-05-07T12:02:13;14.93;;;9.85;;
80133;SDS011;69443;51.442;10.564;2023-05-07T12:04:42;10.75;;;8.23;;
80133;SDS011;69443;51.442;10.564;2023-05-07T12:07:14;14.57;;;9.82;;
80133;SDS011;69443;51.442;10.564;2023-05-07T12:09:43;14.40;;;10.27;;
80133;SDS011;69443;51.442;10.564;2023-05-07T12:12:09;14.40;;;10.55;;
80133;SDS011;69443;51.442;10.564;2023-05-07T12:14:41;15.05;;;10.40;;
80133;SDS011;69443;51.442;10.564;2023-05-07T12:17:08;13.38;;;9.77;;
80133;SDS011;69443;51.442;10.564;2023-05-07T12:19:35;13.25;;;9.77;;
80133;SDS011;69443;51.442;10.564;2023-05-07T12:22:02;14.90;;;10.82;;
80133;SDS011;69443;51.442;10.564;2023-05-07T12:24:28;13.07;;;9.85;;
80133;SDS011;69443;51.442;10.564;2023-05-07T12:26:54;14.93;;;9.98;;
80133;SDS011;69443;51.442;10.564;2023-05-07T12:29:22;13.48;;;9.23;;
80133;SDS011;69443;51.442;10.564;2023-05-07T12:31:49;12.98;;;9.95;;
80133;SDS011;69443;51.442;10.564;2023-05-07T12:34:15;13.13;;;9.63;;
80133;SDS011;69443;51.442;10.564;2023-05-07T12:36:41;12.82;;;9.68;;
80133;SDS011;69443;51.442;10.564;2023-05-07T12:39:07;14.35;;;10.00;;
80133;SDS011;69443;51.442;10.564;2023-05-07T12:41:57;12.70;;;9.90;;
80133;SDS011;69443;51.442;10.564;2023-05-07T12:44:28;12.93;;;9.38;;
80133;SDS011;69443;51.442;10.564;2023-05-07T12:46:55;12.32;;;9.70;;
80133;SDS011;69443;51.442;10.564;2023-05-07T12:49:20;13.60;;;10.00;;
80133;SDS011;69443;51.442;10.564;2023-05-07T12:51:46;11.80;;;10.30;;
80133;SDS011;69443;51.442;10.564;2023-05-07T12:54:13;12.52;;;9.85;;
80133;SDS011;69443;51.442;10.564;2023-05-07T12:57:01;12.88;;;9.95;;
80133;SDS011;69443;51.442;10.564;2023-05-07T12:59:31;10.90;;;9.70;;
80133;SDS011;69443;51.442;10.564;2023-05-07T13:01:57;11.38;;;10.13;;
80133;SDS011;69443;51.442;10.564;2023-05-07T13:04:24;11.32;;;9.32;;
80133;SDS011;69443;51.442;10.564;2023-05-07T13:06:50;11.77;;;9.65;;
80133;SDS011;69443;51.442;10.564;2023-05-07T13:09:15;12.10;;;10.70;;
80133;SDS011;69443;51.442;10.564;2023-05-07T13:11:40;10.85;;;9.52;;
80133;SDS011;69443;51.442;10.564;2023-05-07T13:14:06;12.07;;;9.77;;
80133;SDS011;69443;51.442;10.564;2023-05-07T13:16:31;11.90;;;9.48;;
80133;SDS011;69443;51.442;10.564;2023-05-07T13:18:56;16.80;;;9.98;;
80133;SDS011;69443;51.442;10.564;2023-05-07T13:21:22;10.75;;;9.60;;
80133;SDS011;69443;51.442;10.564;2023-05-07T13:23:47;10.93;;;9.82;;
80133;SDS011;69443;51.442;10.564;2023-05-07T13:26:12;10.20;;;8.88;;
80133;SDS011;69443;51.442;10.564;2023-05-07T13:28:38;9.93;;;8.65;;
80133;SDS011;69443;51.442;10.564;2023-05-07T13:31:03;11.25;;;8.95;;
80133;SDS011;69443;51.442;10.564;2023-05-07T13:33:29;10.10;;;8.55;;
80133;SDS011;69443;51.442;10.564;2023-05-07T13:35:55;10.90;;;8.20;;
80133;SDS011;69443;51.442;10.564;2023-05-07T13:38:23;9.35;;;8.27;;
80133;SDS011;69443;51.442;10.564;2023-05-07T13:40:48;9.57;;;8.30;;
80133;SDS011;69443;51.442;10.564;2023-05-07T13:43:14;11.07;;;8.30;;
80133;SDS011;69443;51.442;10.564;2023-05-07T13:45:39;8.82;;;7.93;;
80133;SDS011;69443;51.442;10.564;2023-05-07T13:48:05;8.43;;;7.53;;
80133;SDS011;69443;51.442;10.564;2023-05-07T13:50:30;8.52;;;7.63;;
80133;SDS011;69443;51.442;10.564;2023-05-07T13:52:56;7.95;;;7.07;;
80133;SDS011;69443;51.442;10.564;2023-05-07T13:55:22;10.02;;;8.00;;
80133;SDS011;69443;51.442;10.564;2023-05-07T13:57:54;9.05;;;7.53;;
80133;SDS011;69443;51.442;10.564;2023-05-07T14:00:23;9.02;;;7.63;;
80133;SDS011;69443;51.442;10.564;2023-05-07T14:02:49;9.70;;;8.65;;
80133;SDS011;69443;51.442;10.564;2023-05-07T14:05:14;13.07;;;9.18;;
80133;SDS011;69443;51.442;10.564;2023-05-07T14:07:40;10.23;;;9.15;;
80133;SDS011;69443;51.442;10.564;2023-05-07T14:10:05;14.02;;;8.93;;
80133;SDS011;69443;51.442;10.564;2023-05-07T14:12:31;9.82;;;8.82;;
80133;SDS011;69443;51.442;10.564;2023-05-07T14:14:57;9.05;;;7.88;;
80133;SDS011;69443;51.442;10.564;2023-05-07T14:17:23;9.82;;;8.82;;
80133;SDS011;69443;51.442;10.564;2023-05-07T14:19:50;10.50;;;9.40;;
80133;SDS011;69443;51.442;10.564;2023-05-07T14:22:15;10.48;;;8.82;;
80133;SDS011;69443;51.442;10.564;2023-05-07T14:24:41;10.60;;;9.10;;